Tiempo atmosférico en la estación meteorológica de Alcázar Del Rey, Cuenca (875 m.)



Fecha
DESCASC
Temp. máxima en grados centígrados (hora)
DESCASC
Temp. mínima en grados centígrados (hora)
DESCASC
Temp. media en grados centígrados
DESCASC
Racha de viento máxima en m/sg (hora)
DESCASC
Velocidad máxima media en intervalos de 10 minutos(hora)
DESCASC
Precipitaciones diarias en mm
DESCASC
Precipitaciones de 00:00 a 06:00 en mm
DESCASC
Precipitaciones de 06:00 a 12:00 en mm
DESCASC
Precipitaciones de 12:00 a 18:00 en mm
DESCASC
Precipitaciones de 18:00 a 24:00 en mm
DESCASC
22-07-2019 35.6 (17:00) 19.8 (00:00) 27.7 13.89 (17:30) 7.78 (19:40) 0 0 0 0 0
23-07-2019 36.2 (15:40) 20.7 (00:00) 28.5 16.94 (20:00) 8.61 (19:30) 0 0 0 0 0
24-07-2019 36.8 (17:40) 21.4 (00:00) 29.1 11.67 (14:20) 6.11 (14:20) 0 0 0 0 0
25-07-2019 36 (15:50) 21.1 (00:00) 28.6 10.28 (15:30) 5.28 (00:10) 0 0 0 0 0
26-07-2019 31.7 (17:10) 21.3 (00:00) 26.5 12.5 (17:00) 6.67 (19:20) 0 0 0 0 0
27-07-2019 28.1 (16:20) 15.5 (00:00) 21.8 12.78 (15:50) 7.22 (17:20) 0 0 0 0 0
28-07-2019 29.9 (17:00) 12.1 (00:00) 21 8.61 (14:40) 4.44 (13:40) 0 0 0 0 0
29-07-2019 33.3 (17:00) 14.8 (00:00) 24 13.06 (14:10) 5.28 (19:10) 0 0 0 0 0
30-07-2019 32.4 (17:50) 14.8 (00:00) 23.6 9.44 (14:30) 5.28 (09:40) 0 0 0 0 0
31-07-2019 30.7 (16:50) 17.9 (00:00) 24.3 13.61 (06:40) 7.5 (11:50) 0 0 0 0 0
01-08-2019 37.6 (15:00) 16.8 (00:00) 27.2 15.28 (16:10) 7.5 (00:40) 0 0 0 0 0
02-08-2019 35.6 (17:20) 14.7 (00:00) 25.1 7.78 (15:10) 3.89 (15:10) 0 0 0 0 0
03-08-2019 36 (17:30) 18.8 (00:00) 27.4 10 (16:40) 4.44 (16:00) 0 0 0 0 0
04-08-2019 36 (18:10) 17.4 (00:00) 26.7 10 (20:10) 4.72 (17:30) 0 0 0 0 0
05-08-2019 36.1 (16:50) 16.7 (00:00) 26.4 8.06 (16:30) 3.61 (15:30) 0 0 0 0 0
06-08-2019 35.7 (17:10) 16.8 (00:00) 26.3 9.44 (19:10) 5 (17:40) 0 0 0 0 0
07-08-2019 30.5 (14:40) 19.7 (00:00) 25.1 9.17 (14:50) 5.56 (14:50) 0 0 0 0 0
08-08-2019 33.4 (17:20) 15 (00:00) 24.2 9.17 (16:20) 4.44 (20:30) 0 0 0 0 0
09-08-2019 34 (16:40) 19.1 (00:00) 26.6 12.22 (17:30) 6.11 (18:00) 0 0 0 0 0
10-08-2019 32.9 (17:40) 16.8 (00:00) 24.9 9.17 (16:10) 4.17 (18:20) 0 0 0 0 0
11-08-2019 30.8 (16:10) 17.3 (00:00) 24 11.39 (14:40) 6.11 (19:00) 0 0 0 0 0
12-08-2019 27.1 (16:40) 14.2 (00:00) 20.7 9.44 (10:20) 5.56 (10:20) 0 0 0 0 0
13-08-2019 30.2 (17:20) 13.6 (00:00) 21.9 8.61 (17:20) 4.17 (01:50) 0 0 0 0 0
14-08-2019 33 (18:00) 12.7 (00:00) 22.8 7.78 (14:00) 3.89 (15:40) 0 0 0 0 0
15-08-2019 35.2 (17:20) 16 (00:00) 25.6 10.56 (16:10) 3.61 (16:20) 0 0 0 0 0
16-08-2019 36.2 (17:30) 16.7 (07:00) 26.5 10.28 (00:50) 5.28 (00:50) 0 0 0 0 0
17-08-2019 36.8 (18:00) 17.1 (07:00) 26.9 9.72 (15:50) 4.72 (16:30) 0 0 0 0 0
18-08-2019 35.7 (17:10) 17.5 (07:20) 26.6 13.61 (16:30) 7.5 (16:30) 0 0 0 0 0

Gráficas

Temp. máximas Temp. mínimas Temp. medias Precipitaciones Rachas de viento máximas Velocidades máximas media en intervalos de 10 minutos

Datos horarios

Fecha y hora oficial Temperatura (ºC) Velocidad del viento (km/h) Dirección del viento Racha (km/h) Dirección de racha Precipitación (mm) Presión (hPa) Tendencia (hPa) Humedad (%)
2019-08-20 23:00:00 -- -- -- -- -- -- -- -- --
2019-08-20 22:00:00 20.6 22 Sudeste 43 Este 0 -- -- 74
2019-08-20 21:00:00 24.5 14 Nordeste 33 Nordeste 0 -- -- 52
2019-08-20 20:00:00 26.5 19 Nordeste 31 Norte 0 -- -- 41
2019-08-20 19:00:00 27.7 19 Norte 36 Nordeste 0 -- -- 40
2019-08-20 18:00:00 28.3 21 Norte 36 Nordeste 0 -- -- 40
2019-08-20 17:00:00 29.4 18 Norte 32 Norte 0 -- -- 39
2019-08-20 16:00:00 29.9 8 Noroeste 21 Nordeste 0 -- -- 37
2019-08-20 15:00:00 30.4 12 Norte 24 Norte 0 -- -- 39
2019-08-20 14:00:00 30.2 5 Sur 20 Sur 0 -- -- 38
2019-08-20 13:00:00 27.4 6 Este 19 Este 0 -- -- 45
2019-08-20 12:00:00 25.9 10 Sudeste 21 Este 0 -- -- 54
2019-08-20 11:00:00 24.9 11 Sudeste 22 Este 0 -- -- 61
2019-08-20 10:00:00 22 10 Sudeste 23 Sudeste 0 -- -- 72
2019-08-20 09:00:00 20.5 9 Sudeste 23 Sudeste 0 -- -- 77
2019-08-20 08:00:00 20 12 Sudeste 27 Sudeste 0 -- -- 80
2019-08-20 07:00:00 19.7 9 Sudeste 23 Sudeste 0 -- -- 82
2019-08-20 06:00:00 19.7 8 Sudeste 24 Sudeste 0 -- -- 81
2019-08-20 05:00:00 20.2 14 Sudeste 31 Este 0 -- -- 79
2019-08-20 04:00:00 20.8 18 Sudeste 31 Sudeste 0 -- -- 78
2019-08-20 03:00:00 21.1 14 Sudeste 28 Sudeste 0 -- -- 77
2019-08-20 02:00:00 21.5 16 Sudeste 32 Sudeste 0 -- -- 77
2019-08-20 01:00:00 22.4 19 Sudeste 33 Sudeste 0 -- -- 74
2019-08-20 00:00:00 24.8 12 Sudeste 18 Sudeste 0 -- -- 61
2019-08-19 23:00:00 26.3 3 Oeste 19 Noroeste 0 -- -- 34
2019-08-19 22:00:00 27.3 8 Noroeste 26 Noroeste 0 -- -- 33
2019-08-19 21:00:00 29.3 16 Noroeste 26 Noroeste 0 -- -- 30
2019-08-19 20:00:00 30.9 10 Sudoeste 31 Sudoeste 0 -- -- 26
2019-08-19 19:00:00 33 12 Sudoeste 27 Sudoeste 0 -- -- 23
2019-08-19 18:00:00 33.7 14 Sudoeste 35 Sudoeste 0 -- -- 22
2019-08-19 17:00:00 33.7 13 Sur 31 Sudoeste 0 -- -- 22
2019-08-19 16:00:00 33.9 14 Sudoeste 33 Sur 0 -- -- 22
2019-08-19 15:00:00 32.9 12 Sudoeste 28 Sudoeste 0 -- -- 22
2019-08-19 14:00:00 31.7 11 Sudoeste 26 Sudoeste 0 -- -- 25
2019-08-19 13:00:00 30.4 12 Sudoeste 31 Oeste 0 -- -- 30
2019-08-19 12:00:00 29.2 10 Sudoeste 23 Sudoeste 0 -- -- 35
2019-08-19 11:00:00 29.6 8 Sur 18 Sur 0 -- -- 37
2019-08-19 10:00:00 28.2 5 Sur 9 Sur 0 -- -- 35
2019-08-19 09:00:00 24.8 4 Sudeste 8 Sur 0 -- -- 36
2019-08-19 08:00:00 18.2 4 Sur 8 Sur 0 -- -- 45
2019-08-19 07:00:00 17.4 4 Sur 6 Sudeste 0 -- -- 48
2019-08-19 06:00:00 17.5 0 Calma 10 Sur 0 -- -- 42
2019-08-19 05:00:00 18.8 5 Sur 9 Sur 0 -- -- 40
2019-08-19 04:00:00 19.8 6 Sur 14 Sudeste 0 -- -- 37
2019-08-19 03:00:00 19.6 2 Sudeste 10 Sur 0 -- -- 35
2019-08-19 02:00:00 21.7 3 Sur 10 Sudoeste 0 -- -- 32
2019-08-19 01:00:00 22.2 4 Oeste 10 Oeste 0 -- -- 30
2019-08-19 00:00:00 23.4 6 Noroeste 12 Oeste 0 -- -- 26
2019-08-18 23:00:00 25.1 6 Oeste 24 Oeste 0 -- -- 24
2019-08-18 22:00:00 26.8 10 Oeste 21 Oeste 0 -- -- 24
2019-08-18 21:00:00 29.5 13 Oeste 31 Oeste 0 -- -- 20
2019-08-18 20:00:00 32.2 21 Oeste 43 Oeste 0 -- -- 18
2019-08-18 19:00:00 34.1 20 Oeste 42 Oeste 0 -- -- 17
2019-08-18 18:00:00 35.3 17 Oeste 44 Oeste 0 -- -- 16
2019-08-18 17:00:00 35.4 19 Sudoeste 49 Sudoeste 0 -- -- 17
2019-08-18 16:00:00 35.3 17 Sudoeste 40 Sudoeste 0 -- -- 17
2019-08-18 15:00:00 34.9 19 Oeste 39 Oeste 0 -- -- 19
2019-08-18 14:00:00 33.6 21 Oeste 45 Sudoeste 0 -- -- 20
2019-08-18 13:00:00 33 16 Oeste 35 Sudoeste 0 -- -- 21
2019-08-18 12:00:00 32 10 Sudoeste 26 Oeste 0 -- -- 21
2019-08-18 11:00:00 30.9 8 Sur 13 Sur 0 -- -- 28
2019-08-18 10:00:00 28.9 4 Sur 7 Sur 0 -- -- 37
2019-08-18 09:00:00 25.3 3 Sudoeste 5 Sur 0 -- -- 42
2019-08-18 08:00:00 19 0 Calma 9 Sudeste 0 -- -- 54
2019-08-18 07:00:00 18.3 3 Noroeste 10 Sur 0 -- -- 55
2019-08-18 06:00:00 18.8 0 Calma 12 Sudeste 0 -- -- 52
2019-08-18 05:00:00 21 7 Sur 15 Sudeste 0 -- -- 48
2019-08-18 04:00:00 21.7 6 Sur 14 Sur 0 -- -- 42
2019-08-18 03:00:00 21.9 6 Sudeste 16 Sudeste 0 -- -- 35
2019-08-18 02:00:00 21.8 0 Calma 8 Sur 0 -- -- 33
2019-08-18 01:00:00 22.8 3 Sudeste 6 Sur 0 -- -- 31
2019-08-18 00:00:00 24.3 0 Calma 0 Calma 0 -- -- 29
2019-08-17 23:00:00 26.3 0 Calma 9 Oeste 0 -- -- 26
2019-08-17 22:00:00 29 4 Oeste 7 Oeste 0 -- -- 23
2019-08-17 21:00:00 32 4 Oeste 23 Oeste 0 -- -- 20
2019-08-17 20:00:00 34.8 13 Oeste 34 Oeste 0 -- -- 17
2019-08-17 19:00:00 35.9 13 Oeste 33 Sur 0 -- -- 16
2019-08-17 18:00:00 36.8 10 Sudoeste 32 Oeste 0 -- -- 18
2019-08-17 17:00:00 36.4 12 Sur 30 Noroeste 0 -- -- 19
2019-08-17 16:00:00 35.7 14 Sudoeste 35 Sudoeste 0 -- -- 19
2019-08-17 15:00:00 35.6 14 Oeste 31 Sudoeste 0 -- -- 20
2019-08-17 14:00:00 35 12 Sudoeste 33 Sudoeste 0 -- -- 21
2019-08-17 13:00:00 34 12 Oeste 26 Oeste 0 -- -- 22
2019-08-17 12:00:00 32.5 10 Sur 18 Sudoeste 0 -- -- 28
2019-08-17 11:00:00 30.8 6 Sur 15 Sudeste 0 -- -- 30
2019-08-17 10:00:00 27.2 7 Sudeste 15 Sudeste 0 -- -- 45
2019-08-17 09:00:00 24.6 4 Sur 10 Sur 0 -- -- 54
2019-08-17 08:00:00 19.3 4 Sudeste 9 Este 0 -- -- 70
2019-08-17 07:00:00 17.1 5 Este 13 Sudoeste 0 -- -- 73
2019-08-17 06:00:00 19.2 4 Sudeste 14 Sur 0 -- -- 70
2019-08-17 05:00:00 20.5 7 Sur 16 Sur 0 -- -- 66
2019-08-17 04:00:00 21.8 8 Sur 17 Sur 0 -- -- 60
2019-08-17 03:00:00 22.5 10 Sur 28 Este 0 -- -- 53
2019-08-17 02:00:00 22.9 12 Sudeste 30 Sudeste 0 -- -- 45
2019-08-17 01:00:00 22.3 0 Calma 3 Sur 0 -- -- 34
2019-08-17 00:00:00 23.6 3 Sur 6 Sudeste 0 -- -- 32
2019-08-16 23:00:00 25.7 0 Calma 4 Este 0 -- -- 30
2019-08-16 22:00:00 27.9 0 Calma 9 Noroeste 0 -- -- 27
2019-08-16 21:00:00 31.5 6 Noroeste 24 Noroeste 0 -- -- 24
2019-08-16 20:00:00 34.1 10 Noroeste 27 Oeste 0 -- -- 22
2019-08-16 19:00:00 35.1 12 Oeste 30 Oeste 0 -- -- 20
2019-08-16 18:00:00 36 14 Oeste 34 Oeste 0 -- -- 19
2019-08-16 17:00:00 36.1 13 Oeste 31 Oeste 0 -- -- 20
2019-08-16 16:00:00 34.9 9 Oeste 30 Sudoeste 0 -- -- 22
2019-08-16 15:00:00 34.8 10 Sudoeste 30 Sudeste 0 -- -- 23
2019-08-16 14:00:00 32.6 10 Sur 24 Sudeste 0 -- -- 28
2019-08-16 13:00:00 30.5 9 Sur 24 Sur 0 -- -- 32
2019-08-16 12:00:00 28.4 10 Sudeste 26 Sudeste 0 -- -- 37
2019-08-16 11:00:00 27.1 14 Sudeste 29 Sudeste 0 -- -- 40
2019-08-16 10:00:00 25.1 17 Sudeste 29 Sudeste 0 -- -- 45
2019-08-16 09:00:00 23 8 Sudeste 15 Sudeste 0 -- -- 52
2019-08-16 08:00:00 18.7 4 Nordeste 10 Este 0 -- -- 65
2019-08-16 07:00:00 16.7 8 Este 10 Este 0 -- -- 72
2019-08-16 06:00:00 18 4 Este 10 Nordeste 0 -- -- 69
2019-08-16 05:00:00 20.1 3 Nordeste 21 Sudeste 0 -- -- 66
2019-08-16 04:00:00 21.1 12 Sudeste 25 Sudeste 0 -- -- 64
2019-08-16 03:00:00 21.6 12 Sudeste 27 Sudeste 0 -- -- 62
2019-08-16 02:00:00 21.9 7 Sudeste 20 Este 0 -- -- 56
2019-08-16 01:00:00 24.1 15 Sudeste 37 Este 0 -- -- 44
2019-08-16 00:00:00 22.5 3 Sur 6 Sudoeste 0 -- -- 30
2019-08-15 23:00:00 24.6 3 Sur 4 Sudeste 0 -- -- 29
2019-08-15 22:00:00 26.8 2 Sur 6 Oeste 0 -- -- 25
2019-08-15 21:00:00 30.8 4 Sudoeste 15 Oeste 0 -- -- 22
2019-08-15 20:00:00 33.5 7 Oeste 22 Oeste 0 -- -- 20
2019-08-15 19:00:00 34.6 9 Noroeste 24 Oeste 0 -- -- 19
2019-08-15 18:00:00 34.9 12 Noroeste 28 Noroeste 0 -- -- 18
2019-08-15 17:00:00 34.8 13 Noroeste 38 Oeste 0 -- -- 18
2019-08-15 16:00:00 34.5 8 Oeste 28 Oeste 0 -- -- 19
2019-08-15 15:00:00 34 10 Oeste 25 Sudoeste 0 -- -- 19
2019-08-15 14:00:00 33 7 Oeste 24 Oeste 0 -- -- 19
2019-08-15 13:00:00 31.2 4 Este 10 Norte 0 -- -- 25
2019-08-15 12:00:00 30.7 5 Oeste 10 Sudoeste 0 -- -- 27
2019-08-15 11:00:00 28.2 4 Este 9 Nordeste 0 -- -- 33
2019-08-15 10:00:00 25.4 7 Nordeste 12 Nordeste 0 -- -- 40
2019-08-15 09:00:00 21.8 6 Nordeste 10 Nordeste 0 -- -- 46
2019-08-15 08:00:00 17.1 4 Nordeste 14 Sudeste 0 -- -- 48
2019-08-15 07:00:00 17.3 5 Sudeste 14 Sudeste 0 -- -- 52
2019-08-15 06:00:00 17 4 Sudeste 18 Este 0 -- -- 44
2019-08-15 05:00:00 16.8 10 Sudeste 19 Sudeste 0 -- -- 38
2019-08-15 04:00:00 16.2 0 Calma 3 Sur 0 -- -- 37
2019-08-15 03:00:00 17.2 0 Calma 5 Nordeste 0 -- -- 36
2019-08-15 02:00:00 17.8 6 Nordeste 17 Norte 0 -- -- 35
2019-08-15 01:00:00 19.4 3 Sur 5 Sudeste 0 -- -- 32
2019-08-15 00:00:00 20.8 0 Calma 4 Oeste 0 -- -- 32
2019-08-14 23:00:00 22.6 0 Calma 4 Sudeste 0 -- -- 27
2019-08-14 22:00:00 25.1 0 Calma 8 Oeste 0 -- -- 25
2019-08-14 21:00:00 28.4 3 Oeste 16 Oeste 0 -- -- 22
2019-08-14 20:00:00 31.4 8 Oeste 24 Noroeste 0 -- -- 20
2019-08-14 19:00:00 32.3 8 Oeste 23 Noroeste 0 -- -- 20
2019-08-14 18:00:00 33 10 Oeste 28 Noroeste 0 -- -- 20
2019-08-14 17:00:00 32.4 12 Oeste 28 Oeste 0 -- -- 19
2019-08-14 16:00:00 32 10 Oeste 26 Noroeste 0 -- -- 20
2019-08-14 15:00:00 31.7 7 Oeste 27 Noroeste 0 -- -- 21
2019-08-14 14:00:00 30.2 13 Oeste 28 Oeste 0 -- -- 24
2019-08-14 13:00:00 28.7 8 Sudoeste 14 Sudoeste 0 -- -- 29
2019-08-14 12:00:00 26.2 4 Nordeste 9 Este 0 -- -- 30
2019-08-14 11:00:00 25.8 5 Sur 12 Sudeste 0 -- -- 51
2019-08-14 10:00:00 23.1 6 Sudeste 12 Este 0 -- -- 60
2019-08-14 09:00:00 19.2 5 Nordeste 9 Nordeste 0 -- -- 72
2019-08-14 08:00:00 13.5 6 Nordeste 8 Nordeste 0 -- -- 76
2019-08-14 07:00:00 12.7 2 Sudeste 7 Norte 0 -- -- 78
2019-08-14 06:00:00 13.9 0 Calma 6 Nordeste 0 -- -- 79
2019-08-14 05:00:00 14 2 Nordeste 6 Nordeste 0 -- -- 68
2019-08-14 04:00:00 16.2 4 Nordeste 8 Nordeste 0 -- -- 61
2019-08-14 03:00:00 15.7 7 Este 18 Este 0 -- -- 53
2019-08-14 02:00:00 17.6 11 Sudeste 20 Sudeste 0 -- -- 30
2019-08-14 01:00:00 18.1 8 Nordeste 16 Nordeste 0 -- -- 31
2019-08-14 00:00:00 17.9 0 Calma 2 Sur 0 -- -- 35
2019-08-13 23:00:00 19.3 0 Calma 5 Este 0 -- -- 31
2019-08-13 22:00:00 21.9 0 Calma 9 Noroeste 0 -- -- 28
2019-08-13 21:00:00 25.5 6 Noroeste 21 Oeste 0 -- -- 24
2019-08-13 20:00:00 28 12 Noroeste 27 Noroeste 0 -- -- 22
2019-08-13 19:00:00 29.1 13 Oeste 27 Oeste 0 -- -- 22
2019-08-13 18:00:00 29.7 13 Oeste 31 Noroeste 0 -- -- 25
2019-08-13 17:00:00 30 11 Noroeste 26 Oeste 0 -- -- 23
2019-08-13 16:00:00 29.3 10 Sudoeste 27 Oeste 0 -- -- 26
2019-08-13 15:00:00 27.8 8 Norte 20 Oeste 0 -- -- 32
2019-08-13 14:00:00 28.2 7 Sur 17 Oeste 0 -- -- 33
2019-08-13 13:00:00 25.2 9 Este 17 Este 0 -- -- 43
2019-08-13 12:00:00 24.2 6 Sudeste 16 Sudeste 0 -- -- 48
2019-08-13 11:00:00 22.2 9 Este 16 Sudeste 0 -- -- 51
2019-08-13 10:00:00 19.9 9 Nordeste 15 Nordeste 0 -- -- 44
2019-08-13 09:00:00 16 9 Nordeste 18 Nordeste 0 -- -- 55
2019-08-13 08:00:00 14 11 Nordeste 18 Nordeste 0 -- -- 60
2019-08-13 07:00:00 13.8 12 Nordeste 22 Nordeste 0 -- -- 59
2019-08-13 06:00:00 14.1 10 Nordeste 17 Nordeste 0 -- -- 55
2019-08-13 05:00:00 14.9 12 Nordeste 20 Nordeste 0 -- -- 51
2019-08-13 04:00:00 14.6 13 Nordeste 23 Nordeste 0 -- -- 50
2019-08-13 03:00:00 15.9 13 Nordeste 23 Nordeste 0 -- -- 45
2019-08-13 02:00:00 16.6 15 Nordeste 22 Nordeste 0 -- -- 42
2019-08-13 01:00:00 17.3 9 Nordeste 22 Nordeste 0 -- -- 40
2019-08-13 00:00:00 18 11 Nordeste 21 Nordeste 0 -- -- 38
2019-08-12 23:00:00 19.1 10 Norte 19 Norte 0 -- -- 30
2019-08-12 22:00:00 20.7 5 Norte 12 Noroeste 0 -- -- 28
2019-08-12 21:00:00 23.1 5 Noroeste 18 Nordeste 0 -- -- 23
2019-08-12 20:00:00 25.1 9 Norte 23 Norte 0 -- -- 20
2019-08-12 19:00:00 25.8 13 Norte 27 Nordeste 0 -- -- 20
2019-08-12 18:00:00 26.9 8 Norte 25 Nordeste 0 -- -- 19
2019-08-12 17:00:00 26.3 14 Norte 27 Norte 0 -- -- 21
2019-08-12 16:00:00 26.1 12 Nordeste 28 Norte 0 -- -- 22
2019-08-12 15:00:00 25.5 13 Nordeste 28 Nordeste 0 -- -- 23
2019-08-12 14:00:00 24.6 10 Norte 28 Noroeste 0 -- -- 27
2019-08-12 13:00:00 23.5 13 Nordeste 31 Nordeste 0 -- -- 32
2019-08-12 12:00:00 21.9 15 Nordeste 31 Nordeste 0 -- -- 35
2019-08-12 11:00:00 20.4 19 Nordeste 34 Nordeste 0 -- -- 42
2019-08-12 10:00:00 19.3 18 Nordeste 31 Nordeste 0 -- -- 48
2019-08-12 09:00:00 17.6 16 Nordeste 27 Norte 0 -- -- 56
2019-08-12 08:00:00 15.1 11 Nordeste 19 Nordeste 0 -- -- 61
2019-08-12 07:00:00 14.7 9 Norte 17 Norte 0 -- -- 56
2019-08-12 06:00:00 15 9 Norte 17 Nordeste 0 -- -- 53
2019-08-12 05:00:00 16.2 6 Norte 16 Norte 0 -- -- 46
2019-08-12 04:00:00 16.2 2 Norte 6 Noroeste -- -- -- 42
2019-08-12 03:00:00 17.6 2 Noroeste 14 Noroeste 0 -- -- 38
2019-08-12 02:00:00 18.7 10 Noroeste 15 Noroeste 0 -- -- 37
2019-08-12 01:00:00 18.6 3 Oeste 10 Oeste 0 -- -- 35
2019-08-12 00:00:00 19.4 4 Oeste 14 Oeste 0 -- -- 33
2019-08-11 23:00:00 20.2 4 Oeste 12 Oeste 0 -- -- 28
2019-08-11 22:00:00 21.5 5 Oeste 17 Oeste 0 -- -- 19
2019-08-11 21:00:00 24.2 15 Oeste 36 Noroeste 0 -- -- 15
2019-08-11 20:00:00 28.3 21 Oeste 35 Noroeste 0 -- -- 20
2019-08-11 19:00:00 29.4 22 Oeste 38 Oeste 0 -- -- 24
2019-08-11 18:00:00 30.2 14 Oeste 31 Oeste 0 -- -- 24
2019-08-11 17:00:00 30.5 16 Oeste 39 Noroeste 0 -- -- 23
2019-08-11 16:00:00 30.7 20 Oeste 38 Noroeste 0 -- -- 20
2019-08-11 15:00:00 29.7 17 Oeste 41 Oeste 0 -- -- 22
2019-08-11 14:00:00 29.5 14 Oeste 31 Oeste 0 -- -- 24
2019-08-11 13:00:00 28.3 13 Sudoeste 32 Oeste 0 -- -- 26
2019-08-11 12:00:00 27.2 14 Sudoeste 31 Oeste 0 -- -- 28
2019-08-11 11:00:00 27.3 9 Sudoeste 22 Sudoeste 0 -- -- 29
2019-08-11 10:00:00 22.5 4 Sur 9 Sudeste 0 -- -- 37
2019-08-11 09:00:00 20.4 5 Sur 8 Sur 0 -- -- 40
2019-08-11 08:00:00 19.5 2 Sudeste 9 Oeste 0 -- -- 40
2019-08-11 07:00:00 18.2 3 Oeste 10 Oeste 0 -- -- 42
2019-08-11 06:00:00 17.4 3 Oeste 6 Oeste 0 -- -- 42
2019-08-11 05:00:00 17.8 0 Calma 7 Oeste 0 -- -- 42
2019-08-11 04:00:00 18.1 0 Calma 5 Sur 0 -- -- 43
2019-08-11 03:00:00 18.8 3 Sur 7 Sudeste 0 -- -- 42
2019-08-11 02:00:00 19.9 2 Sudeste 6 Oeste 0 -- -- 43
2019-08-11 01:00:00 21.7 0 Calma 9 Noroeste 0 -- -- 41
2019-08-11 00:00:00 23.5 6 Noroeste 9 Noroeste 0 -- -- 38
2019-08-10 23:00:00 25.1 5 Noroeste 10 Oeste 0 -- -- 36
2019-08-10 22:00:00 26.7 4 Oeste 21 Oeste 0 -- -- 35
2019-08-10 21:00:00 29.4 8 Sudoeste 23 Sur 0 -- -- 29
2019-08-10 20:00:00 31.3 11 Sudoeste 27 Sudoeste 0 -- -- 27
2019-08-10 19:00:00 32.3 13 Sudoeste 29 Oeste 0 -- -- 24
2019-08-10 18:00:00 32.4 13 Sudoeste 30 Sur 0 -- -- 29
2019-08-10 17:00:00 32.3 10 Sudoeste 33 Sudoeste 0 -- -- 31
2019-08-10 16:00:00 31.4 11 Sudoeste 30 Sudoeste 0 -- -- 30
2019-08-10 15:00:00 30.6 10 Sudoeste 30 Sudoeste 0 -- -- 34
2019-08-10 14:00:00 29.2 12 Sudoeste 29 Oeste 0 -- -- 37
2019-08-10 13:00:00 28.2 8 Oeste 19 Oeste 0 -- -- 38
2019-08-10 12:00:00 27.6 8 Oeste 17 Sudoeste 0 -- -- 38
2019-08-10 11:00:00 27.1 5 Sudoeste 12 Sur 0 -- -- 41
2019-08-10 10:00:00 25.7 3 Oeste 10 Sudeste 0 -- -- 47
2019-08-10 09:00:00 23.2 5 Sur 9 Sur 0 -- -- 54
2019-08-10 08:00:00 17.1 0 Calma 4 Sudoeste 0 -- -- 76
2019-08-10 07:00:00 17.3 0 Calma 8 Sudoeste 0 -- -- 78
2019-08-10 06:00:00 17.5 3 Sudoeste 9 Sudoeste 0 -- -- 80
2019-08-10 05:00:00 17.8 2 Oeste 6 Noroeste 0 -- -- 79
2019-08-10 04:00:00 18.7 4 Noroeste 8 Oeste 0 -- -- 77
2019-08-10 03:00:00 19.9 4 Sur 13 Sur 0 -- -- 73
2019-08-10 02:00:00 20.4 3 Sur 7 Oeste 0 -- -- 72
2019-08-10 01:00:00 21.4 3 Oeste 8 Noroeste 0 -- -- 69
2019-08-10 00:00:00 22.2 7 Noroeste 32 Oeste 0 -- -- 68
2019-08-09 23:00:00 23.9 15 Oeste 32 Oeste 0 -- -- 63
2019-08-09 22:00:00 25.9 20 Oeste 35 Oeste 0 -- -- 56
2019-08-09 21:00:00 28.3 16 Oeste 34 Oeste 0 -- -- 44
2019-08-09 20:00:00 31 17 Oeste 42 Oeste 0 -- -- 37
2019-08-09 19:00:00 32.4 18 Oeste 42 Sudoeste 0 -- -- 32
2019-08-09 18:00:00 32.8 22 Sudoeste 44 Oeste 0 -- -- 30
2019-08-09 17:00:00 33.4 13 Sudoeste 35 Oeste 0 -- -- 31
2019-08-09 16:00:00 33 13 Oeste 35 Noroeste 0 -- -- 33
2019-08-09 15:00:00 32.4 15 Oeste 41 Oeste 0 -- -- 32
2019-08-09 14:00:00 31.1 19 Oeste 34 Noroeste 0 -- -- 34
2019-08-09 13:00:00 29.4 17 Oeste 37 Oeste 0 -- -- 38
2019-08-09 12:00:00 28.8 16 Oeste 32 Oeste 0 -- -- 39
2019-08-09 11:00:00 28.6 11 Sudoeste 23 Sudoeste 0 -- -- 40
2019-08-09 10:00:00 28.1 6 Sudoeste 13 Sudoeste 0 -- -- 44
2019-08-09 09:00:00 26.9 2 Sudoeste 6 Sudeste 0 -- -- 46
2019-08-09 08:00:00 21.9 5 Sur 8 Sur 0 -- -- 55
2019-08-09 07:00:00 19.2 3 Sur 6 Sudeste 0 -- -- 61
2019-08-09 06:00:00 19.9 5 Sur 9 Oeste 0 -- -- 57
2019-08-09 05:00:00 19.6 0 Calma 6 Sudoeste 0 -- -- 52
2019-08-09 04:00:00 20.7 4 Sur 10 Sur 0 -- -- 48
2019-08-09 03:00:00 20.3 2 Sur 5 Sur 0 -- -- 49
2019-08-09 02:00:00 21.8 4 Sur 6 Sur 0 -- -- 46
2019-08-09 01:00:00 23.6 0 Calma 10 Oeste 0 -- -- 42
2019-08-09 00:00:00 25.1 7 Noroeste 13 Sudoeste 0 -- -- 38
2019-08-08 23:00:00 26.8 5 Oeste 14 Oeste 0 -- -- 36
2019-08-08 22:00:00 28.5 7 Oeste 20 Sudoeste 0 -- -- 34
2019-08-08 21:00:00 30.8 14 Sudoeste 29 Oeste 0 -- -- 28
2019-08-08 20:00:00 32.7 12 Sudoeste 27 Oeste 0 -- -- 26
2019-08-08 19:00:00 33.2 10 Sur 29 Oeste 0 -- -- 27
2019-08-08 18:00:00 33.1 12 Sudoeste 27 Oeste 0 -- -- 27
2019-08-08 17:00:00 33.3 13 Oeste 33 Oeste 0 -- -- 28
2019-08-08 16:00:00 32.8 13 Oeste 31 Oeste 0 -- -- 30
2019-08-08 15:00:00 31.5 11 Sudoeste 30 Oeste 0 -- -- 32
2019-08-08 14:00:00 30.7 8 Sudoeste 23 Oeste 0 -- -- 33
2019-08-08 13:00:00 29.7 7 Oeste 23 Oeste 0 -- -- 36
2019-08-08 12:00:00 28.5 7 Oeste 23 Oeste 0 -- -- 35
2019-08-08 11:00:00 27.5 10 Oeste 18 Noroeste 0 -- -- 41
2019-08-08 10:00:00 27.1 7 Oeste 15 Noroeste 0 -- -- 44
2019-08-08 09:00:00 24 4 Sudeste 7 Sudeste 0 -- -- 47
2019-08-08 08:00:00 19 6 Sur 9 Sur 0 -- -- 60
2019-08-08 07:00:00 15 2 Sur 6 Sudeste 0 -- -- 67
2019-08-08 06:00:00 15.8 0 Calma 3 Oeste 0 -- -- 66
2019-08-08 05:00:00 16.6 3 Este 5 Sudoeste 0 -- -- 65
2019-08-08 04:00:00 17.4 0 Calma 4 Oeste 0 -- -- 61
2019-08-08 03:00:00 17.8 0 Calma 5 Sudeste 0 -- -- 60
2019-08-08 02:00:00 18.1 0 Calma 9 Oeste 0 -- -- 58
2019-08-08 01:00:00 19.3 5 Oeste 12 Oeste 0 -- -- 56
2019-08-08 00:00:00 20.4 8 Noroeste 15 Noroeste 0 -- -- 53
2019-08-07 23:00:00 21.4 4 Noroeste 14 Oeste 0 -- -- 50
2019-08-07 22:00:00 23.2 8 Oeste 20 Sudoeste 0 -- -- 44
2019-08-07 21:00:00 24.1 5 Oeste 25 Oeste 0 -- -- 43
2019-08-07 20:00:00 25.3 16 Noroeste 26 Oeste 0 -- -- 41
2019-08-07 19:00:00 26.8 13 Oeste 27 Oeste 0 -- -- 37
2019-08-07 18:00:00 28.7 12 Noroeste 32 Oeste 0 -- -- 32
2019-08-07 17:00:00 28.8 17 Oeste 32 Oeste 0 -- -- 32
2019-08-07 16:00:00 28.6 14 Noroeste 31 Oeste 0 -- -- 30
2019-08-07 15:00:00 30.3 19 Noroeste 33 Noroeste 0 -- -- 27
2019-08-07 14:00:00 30.1 16 Oeste 27 Oeste 0 -- -- 28
2019-08-07 13:00:00 29.1 14 Oeste 25 Oeste 0 -- -- 29
2019-08-07 12:00:00 27.6 11 Oeste 24 Sudoeste 0 -- -- 30
2019-08-07 11:00:00 28.6 9 Sudoeste 22 Oeste 0 -- -- 30
2019-08-07 10:00:00 26.7 6 Sur 13 Sur 0 -- -- 31
2019-08-07 09:00:00 22.4 5 Sur 8 Sudeste 0 -- -- 35
2019-08-07 08:00:00 20.6 2 Sur 11 Sudoeste 0 -- -- 40
2019-08-07 07:00:00 19.7 6 Sur 10 Sur 0 -- -- 37
2019-08-07 06:00:00 20.5 6 Sur 9 Sur 0 -- -- 31
2019-08-07 05:00:00 21.6 4 Sur 10 Oeste 0 -- -- 30
2019-08-07 04:00:00 21.4 4 Sur 11 Sur 0 -- -- 31
2019-08-07 03:00:00 22 3 Sur 8 Sur 0 -- -- 31
2019-08-07 02:00:00 22.9 4 Sur 8 Oeste 0 -- -- 30
2019-08-07 01:00:00 24.4 5 Oeste 16 Oeste 0 -- -- 26
2019-08-07 00:00:00 25 9 Oeste 23 Noroeste 0 -- -- 24
2019-08-06 23:00:00 26.4 8 Oeste 16 Oeste 0 -- -- 19
2019-08-06 22:00:00 27.7 5 Oeste 17 Sudoeste 0 -- -- 18
2019-08-06 21:00:00 30.7 8 Sudoeste 28 Sudoeste 0 -- -- 15
2019-08-06 20:00:00 33.7 13 Sudoeste 34 Sudoeste 0 -- -- 13
2019-08-06 19:00:00 34.6 12 Sudoeste 31 Sudoeste 0 -- -- 12
2019-08-06 18:00:00 35.6 17 Oeste 31 Oeste 0 -- -- 10
2019-08-06 17:00:00 35.4 14 Sudoeste 33 Sudoeste 0 -- -- 12
2019-08-06 16:00:00 35.2 13 Sur 30 Sur 0 -- -- 15
2019-08-06 15:00:00 34.7 12 Sudoeste 28 Oeste 0 -- -- 14
2019-08-06 14:00:00 33.8 8 Sudoeste 30 Oeste 0 -- -- 15
2019-08-06 13:00:00 32.3 15 Oeste 29 Oeste 0 -- -- 17
2019-08-06 12:00:00 32.3 8 Sudoeste 17 Sudoeste 0 -- -- 17
2019-08-06 11:00:00 31.7 8 Oeste 18 Oeste 0 -- -- 19
2019-08-06 10:00:00 30 4 Sudeste 6 Sur 0 -- -- 25
2019-08-06 09:00:00 25.5 4 Sur 6 Sur 0 -- -- 40
2019-08-06 08:00:00 19.8 0 Calma 6 Sur 0 -- -- 45
2019-08-06 07:00:00 17.4 2 Sudeste 12 Sudeste 0 -- -- 46
2019-08-06 06:00:00 17.7 4 Sur 7 Sur 0 -- -- 38
2019-08-06 05:00:00 18.5 2 Sur 10 Sudeste 0 -- -- 33
2019-08-06 04:00:00 19.2 0 Calma 9 Este 0 -- -- 32
2019-08-06 03:00:00 20.8 3 Sudeste 6 Este 0 -- -- 31
2019-08-06 02:00:00 22.6 3 Oeste 8 Oeste 0 -- -- 29
2019-08-06 01:00:00 23.3 5 Oeste 13 Oeste 0 -- -- 29
2019-08-06 00:00:00 23.6 4 Oeste 7 Oeste 0 -- -- 28
2019-08-05 23:00:00 25.5 4 Sudoeste 10 Noroeste 0 -- -- 23
2019-08-05 22:00:00 28.3 5 Sur 11 Sur 0 -- -- 20
2019-08-05 21:00:00 31.9 7 Sur 14 Sudoeste 0 -- -- 18
2019-08-05 20:00:00 34.5 4 Sudoeste 20 Sudoeste 0 -- -- 16
2019-08-05 19:00:00 35.3 5 Sur 23 Sur 0 -- -- 15
2019-08-05 18:00:00 35.6 9 Sudoeste 25 Oeste 0 -- -- 16
2019-08-05 17:00:00 36.1 9 Sudoeste 29 Oeste 0 -- -- 16
2019-08-05 16:00:00 35.1 11 Sur 26 Sudoeste 0 -- -- 18
2019-08-05 15:00:00 34.8 9 Sudoeste 23 Oeste 0 -- -- 19
2019-08-05 14:00:00 34.2 10 Sudoeste 24 Oeste 0 -- -- 21
2019-08-05 13:00:00 33.3 8 Oeste 21 Oeste 0 -- -- 23
2019-08-05 12:00:00 32.3 9 Oeste 17 Oeste 0 -- -- 25
2019-08-05 11:00:00 30.9 6 Sudoeste 13 Sudoeste 0 -- -- 27
2019-08-05 10:00:00 29.1 5 Sur 9 Sur 0 -- -- 35
2019-08-05 09:00:00 25.6 3 Sudoeste 6 Sudoeste 0 -- -- 44
2019-08-05 08:00:00 20.4 2 Sur 5 Sur 0 -- -- 57
2019-08-05 07:00:00 17.1 0 Calma 7 Sur 0 -- -- 61
2019-08-05 06:00:00 18.6 5 Sur 7 Sur 0 -- -- 60
2019-08-05 05:00:00 19.6 3 Sudeste 23 Este 0 -- -- 51
2019-08-05 04:00:00 21.8 13 Sudeste 24 Sudeste 0 -- -- 47
2019-08-05 03:00:00 22 7 Sudeste 22 Este 0 -- -- 28
2019-08-05 02:00:00 20.7 0 Calma 6 Sudoeste 0 -- -- 29
2019-08-05 01:00:00 21.7 0 Calma 2 Sur 0 -- -- 28
2019-08-05 00:00:00 23.3 0 Calma 2 Norte 0 -- -- 25
2019-08-04 23:00:00 25.2 0 Calma 4 Oeste 0 -- -- 24
2019-08-04 22:00:00 28.3 2 Oeste 12 Oeste 0 -- -- 20
2019-08-04 21:00:00 31.8 7 Oeste 36 Oeste 0 -- -- 18
2019-08-04 20:00:00 34.1 8 Sudoeste 25 Oeste 0 -- -- 17
2019-08-04 19:00:00 35.5 12 Oeste 31 Oeste 0 -- -- 16
2019-08-04 18:00:00 35.7 12 Oeste 29 Oeste 0 -- -- 18
2019-08-04 17:00:00 35.6 10 Oeste 30 Oeste 0 -- -- 17
2019-08-04 16:00:00 35.5 12 Oeste 32 Sudoeste 0 -- -- 16
2019-08-04 15:00:00 34.6 14 Sudoeste 33 Noroeste 0 -- -- 18
2019-08-04 14:00:00 34.1 12 Oeste 25 Oeste 0 -- -- 19
2019-08-04 13:00:00 33 12 Oeste 23 Noroeste 0 -- -- 22
2019-08-04 12:00:00 33 9 Oeste 18 Oeste 0 -- -- 23
2019-08-04 11:00:00 30.8 7 Sur 12 Sur 0 -- -- 33
2019-08-04 10:00:00 28.1 5 Sudeste 12 Sudeste 0 -- -- 45
2019-08-04 09:00:00 25.4 4 Sur 8 Sur 0 -- -- 53
2019-08-04 08:00:00 19.9 0 Calma 11 Sur 0 -- -- 64
2019-08-04 07:00:00 17.6 0 Calma 5 Sudoeste 0 -- -- 72
2019-08-04 06:00:00 19.4 3 Sudoeste 15 Sudeste 0 -- -- 65
2019-08-04 05:00:00 21.1 12 Sur 25 Sur 0 -- -- 64
2019-08-04 04:00:00 21.6 10 Sur 23 Sudeste 0 -- -- 57
2019-08-04 03:00:00 21.8 7 Sudeste 16 Este 0 -- -- 47
2019-08-04 02:00:00 23.1 10 Sudeste 21 Este 0 -- -- 33
2019-08-04 01:00:00 22.4 0 Calma 6 Noroeste 0 -- -- 27
2019-08-04 00:00:00 23 0 Calma 3 Este 0 -- -- 29
2019-08-03 23:00:00 25.3 0 Calma 4 Este 0 -- -- 25
2019-08-03 22:00:00 28.4 0 Calma 6 Oeste 0 -- -- 22
2019-08-03 21:00:00 32.1 5 Sudoeste 18 Sur 0 -- -- 18
2019-08-03 20:00:00 34 8 Sur 31 Sudoeste 0 -- -- 18
2019-08-03 19:00:00 35.2 10 Sur 23 Oeste 0 -- -- 16
2019-08-03 18:00:00 35.9 10 Sudoeste 31 Sudoeste 0 -- -- 16
2019-08-03 17:00:00 35.5 14 Sudoeste 36 Oeste 0 -- -- 16
2019-08-03 16:00:00 35.1 16 Oeste 30 Sudoeste 0 -- -- 17
2019-08-03 15:00:00 34.8 10 Oeste 25 Oeste 0 -- -- 18
2019-08-03 14:00:00 33.4 11 Oeste 24 Oeste 0 -- -- 20
2019-08-03 13:00:00 31.4 8 Sur 20 Sudeste 0 -- -- 29
2019-08-03 12:00:00 29.5 8 Sudeste 21 Sur 0 -- -- 34
2019-08-03 11:00:00 28.3 13 Sur 24 Sudeste 0 -- -- 37
2019-08-03 10:00:00 25.8 15 Sudeste 29 Sur 0 -- -- 43
2019-08-03 09:00:00 24.2 11 Sudeste 21 Sudeste 0 -- -- 46
2019-08-03 08:00:00 20.5 4 Este 10 Sudeste 0 -- -- 56
2019-08-03 07:00:00 18.9 5 Sudeste 12 Este 0 -- -- 61
2019-08-03 06:00:00 19.7 3 Sudeste 20 Sudeste 0 -- -- 58
2019-08-03 05:00:00 20.7 10 Sudeste 26 Sudeste 0 -- -- 56
2019-08-03 04:00:00 21.2 12 Sudeste 22 Sudeste 0 -- -- 57
2019-08-03 03:00:00 21.5 8 Sur 17 Sur 0 -- -- 56
2019-08-03 02:00:00 22.5 9 Sudeste 24 Este 0 -- -- 48
2019-08-03 01:00:00 23 12 Sudeste 35 Sudeste 0 -- -- 40
2019-08-03 00:00:00 21.8 4 Este 9 Noroeste 0 -- -- 29
2019-08-02 23:00:00 24.3 3 Norte 4 Este 0 -- -- 25
2019-08-02 22:00:00 26.8 3 Este 5 Nordeste 0 -- -- 23
2019-08-02 21:00:00 31.3 2 Este 10 Noroeste 0 -- -- 19
2019-08-02 20:00:00 33.8 4 Norte 23 Noroeste 0 -- -- 17
2019-08-02 19:00:00 34.5 7 Norte 21 Oeste 0 -- -- 17
2019-08-02 18:00:00 35.5 6 Sudoeste 26 Noroeste 0 -- -- 17
2019-08-02 17:00:00 35.2 9 Oeste 26 Sudoeste 0 -- -- 18
2019-08-02 16:00:00 35 9 Oeste 28 Oeste 0 -- -- 18
2019-08-02 15:00:00 34.6 8 Noroeste 26 Oeste 0 -- -- 18
2019-08-02 14:00:00 33.3 8 Sudoeste 24 Oeste 0 -- -- 20
2019-08-02 13:00:00 32 10 Sudoeste 20 Oeste 0 -- -- 21
2019-08-02 12:00:00 30.7 6 Sudoeste 16 Sudoeste 0 -- -- 23
2019-08-02 11:00:00 28.7 8 Sur 16 Sur 0 -- -- 27
2019-08-02 10:00:00 27.2 8 Sur 12 Sur 0 -- -- 28
2019-08-02 09:00:00 24.3 5 Sur 9 Sur 0 -- -- 34
2019-08-02 08:00:00 19.5 0 Calma 4 Sudeste 0 -- -- 38
2019-08-02 07:00:00 14.8 0 Calma 4 Sudeste 0 -- -- 44
2019-08-02 06:00:00 16.1 3 Sudeste 9 Sudeste 0 -- -- 41
2019-08-02 05:00:00 16.8 4 Sur 7 Sur 0 -- -- 40
2019-08-02 04:00:00 17.5 3 Sudeste 6 Este 0 -- -- 38
2019-08-02 03:00:00 18.6 2 Sur 4 Sur 0 -- -- 36
2019-08-02 02:00:00 19.7 0 Calma 6 Oeste 0 -- -- 33
2019-08-02 01:00:00 20.2 2 Sur 5 Noroeste 0 -- -- 33
2019-08-02 00:00:00 22.2 0 Calma 3 Nordeste 0 -- -- 30
2019-08-01 23:00:00 24.4 2 Noroeste 6 Oeste 0 -- -- 26
2019-08-01 22:00:00 27.1 3 Oeste 20 Oeste 0 -- -- 24
2019-08-01 21:00:00 30.4 10 Noroeste 22 Oeste 0 -- -- 21
2019-08-01 20:00:00 32.9 9 Oeste 25 Oeste 0 -- -- 20
2019-08-01 19:00:00 34 13 Oeste 28 Noroeste 0 -- -- 22
2019-08-01 18:00:00 34.2 12 Oeste 28 Oeste 0 -- -- 22
2019-08-01 17:00:00 33.9 9 Sudoeste 55 Oeste 0 -- -- 23
2019-08-01 16:00:00 33.1 12 Oeste 32 Oeste 0 -- -- 25
2019-08-01 15:00:00 37.6 9 Sudoeste 66 Este 12.8 -- -- 19
2019-08-01 14:00:00 31.3 12 Oeste 24 Oeste 0 -- -- 28
2019-08-01 13:00:00 29 8 Sur 26 Sudeste 0 -- -- 40
2019-08-01 12:00:00 26.8 11 Sur 21 Sur 0 -- -- 46
2019-08-01 11:00:00 23.3 12 Sudeste 26 Sudeste 0 -- -- 58
2019-08-01 10:00:00 22.8 15 Sudeste 32 Sudeste 0 -- -- 60
2019-08-01 09:00:00 20.7 19 Sudeste 35 Sudeste 0 -- -- 66
2019-08-01 08:00:00 17.7 22 Sudeste 40 Este 0 -- -- 77
2019-08-01 07:00:00 16.8 17 Sudeste 30 Sudeste 0 -- -- 79
2019-08-01 06:00:00 17.4 18 Sudeste 32 Sudeste 0 -- -- 77
2019-08-01 05:00:00 17.7 17 Sudeste 41 Sudeste 0 -- -- 76
2019-08-01 04:00:00 18.2 24 Sudeste 39 Sudeste 0 -- -- 73
2019-08-01 03:00:00 18.6 19 Sudeste 45 Sudeste 0 -- -- 72
2019-08-01 02:00:00 19.2 22 Sudeste 48 Sudeste 0 -- -- 72
2019-08-01 01:00:00 20.1 25 Sudeste 49 Sudeste 0 -- -- 69
2019-08-01 00:00:00 21.4 20 Sudeste 44 Sudeste 0 -- -- 67
2019-07-31 23:00:00 23 20 Sudeste 38 Sudeste 0 -- -- 62
2019-07-31 22:00:00 24.4 16 Sudeste 35 Sudeste 0 -- -- 57
2019-07-31 21:00:00 26 19 Sudeste 35 Sudeste 0 -- -- 52
2019-07-31 20:00:00 27.7 17 Sudeste 36 Sudeste 0 -- -- 48
2019-07-31 19:00:00 28.8 21 Sudeste 46 Este 0 -- -- 44
2019-07-31 18:00:00 30.2 23 Sudeste 44 Este 0 -- -- 39
2019-07-31 17:00:00 30.6 21 Sudeste 42 Sudeste 0 -- -- 38
2019-07-31 16:00:00 30.3 21 Sudeste 44 Sur 0 -- -- 37
2019-07-31 15:00:00 29.6 22 Sudeste 44 Sudeste 0 -- -- 38
2019-07-31 14:00:00 28.7 25 Sudeste 44 Sudeste 0 -- -- 40
2019-07-31 13:00:00 27.4 24 Sudeste 46 Sudeste 0 -- -- 42
2019-07-31 12:00:00 25.9 25 Sudeste 44 Sudeste 0 -- -- 46
2019-07-31 11:00:00 25 22 Sudeste 40 Sudeste 0 -- -- 50
2019-07-31 10:00:00 23.6 15 Sudeste 29 Sudeste 0 -- -- 52
2019-07-31 09:00:00 21.3 15 Este 26 Este 0 -- -- 62
2019-07-31 08:00:00 18.7 9 Nordeste 32 Este 0 -- -- 72
2019-07-31 07:00:00 18.1 17 Sudeste 49 Sur 0 -- -- 75
2019-07-31 06:00:00 18.2 19 Sudeste 41 Sudeste 0 -- -- 75
2019-07-31 05:00:00 18.3 8 Este 19 Sudeste 0 -- -- 62
2019-07-31 04:00:00 18.8 4 Este 20 Este 0 -- -- 65
2019-07-31 03:00:00 20.1 10 Sudeste 25 Sudeste 0 -- -- 65
2019-07-31 02:00:00 21.1 14 Sudeste 26 Sudeste 0 -- -- 62
2019-07-31 01:00:00 20.3 5 Este 23 Este 0 -- -- 52
2019-07-31 00:00:00 21.8 14 Sudeste 27 Este 0 -- -- 24
2019-07-30 23:00:00 21.3 3 Nordeste 4 Nordeste 0 -- -- 23
2019-07-30 22:00:00 24.1 2 Nordeste 9 Noroeste 0 -- -- 20
2019-07-30 21:00:00 28.4 6 Noroeste 15 Oeste 0 -- -- 16
2019-07-30 20:00:00 30.6 9 Oeste 25 Noroeste 0 -- -- 16
2019-07-30 19:00:00 31.8 10 Noroeste 22 Noroeste 0 -- -- 17
2019-07-30 18:00:00 32 7 Noroeste 26 Noroeste 0 -- -- 16
2019-07-30 17:00:00 31.4 4 Sur 24 Oeste 0 -- -- 18
2019-07-30 16:00:00 31.2 12 Noroeste 30 Noroeste 0 -- -- 19
2019-07-30 15:00:00 30 17 Oeste 34 Oeste 0 -- -- 22
2019-07-30 14:00:00 29.4 8 Sudoeste 22 Oeste 0 -- -- 23
2019-07-30 13:00:00 27.5 5 Nordeste 18 Norte 0 -- -- 27
2019-07-30 12:00:00 26.1 8 Nordeste 25 Norte 0 -- -- 30
2019-07-30 11:00:00 23.9 14 Norte 27 Nordeste 0 -- -- 34
2019-07-30 10:00:00 21.9 16 Nordeste 32 Nordeste 0 -- -- 37
2019-07-30 09:00:00 20.1 16 Nordeste 28 Norte 0 -- -- 40
2019-07-30 08:00:00 18.1 10 Norte 18 Norte 0 -- -- 39
2019-07-30 07:00:00 15 10 Norte 19 Norte 0 -- -- 44
2019-07-30 06:00:00 16.4 11 Norte 17 Norte 0 -- -- 42
2019-07-30 05:00:00 17.2 8 Nordeste 15 Norte 0 -- -- 40
2019-07-30 04:00:00 17.5 5 Noroeste 11 Norte 0 -- -- 38
2019-07-30 03:00:00 17.7 3 Nordeste 6 Nordeste 0 -- -- 38
2019-07-30 02:00:00 19.7 2 Noroeste 9 Noroeste 0 -- -- 35
2019-07-30 01:00:00 21 3 Noroeste 15 Oeste 0 -- -- 31
2019-07-30 00:00:00 22.2 8 Oeste 15 Oeste 0 -- -- 29
2019-07-29 23:00:00 23.8 5 Oeste 16 Oeste 0 -- -- 29
2019-07-29 22:00:00 25.7 9 Oeste 24 Oeste 0 -- -- 26
2019-07-29 21:00:00 28.5 16 Oeste 30 Oeste 0 -- -- 20
2019-07-29 20:00:00 30.9 19 Oeste 33 Oeste 0 -- -- 18
2019-07-29 19:00:00 32.5 15 Oeste 35 Noroeste 0 -- -- 18
2019-07-29 18:00:00 33 15 Sudoeste 37 Sudoeste 0 -- -- 21
2019-07-29 17:00:00 33.3 10 Sudoeste 33 Oeste 0 -- -- 22
2019-07-29 16:00:00 31.9 13 Sudoeste 30 Sudoeste 0 -- -- 25
2019-07-29 15:00:00 31.4 12 Sur 47 Sudoeste 0 -- -- 25
2019-07-29 14:00:00 30.4 11 Oeste 35 Oeste 0 -- -- 28
2019-07-29 13:00:00 29.5 10 Sudoeste 24 Sudoeste 0 -- -- 30
2019-07-29 12:00:00 28.8 10 Sudoeste 22 Sudoeste 0 -- -- 29
2019-07-29 11:00:00 27.6 7 Sur 16 Sur 0 -- -- 33
2019-07-29 10:00:00 26.6 6 Sur 12 Sur 0 -- -- 34
2019-07-29 09:00:00 24.2 2 Sur 9 Sur 0 -- -- 31
2019-07-29 08:00:00 20.3 4 Sur 8 Sur 0 -- -- 36
2019-07-29 07:00:00 14.8 2 Oeste 5 Oeste 0 -- -- 45
2019-07-29 06:00:00 15 3 Oeste 5 Sudeste 0 -- -- 43
2019-07-29 05:00:00 15.2 0 Calma 3 Sur 0 -- -- 42
2019-07-29 04:00:00 15.8 0 Calma 5 Sudeste 0 -- -- 40
2019-07-29 03:00:00 16.1 2 Sur 5 Sudeste 0 -- -- 39
2019-07-29 02:00:00 16.4 3 Sur 4 Sur 0 -- -- 38
2019-07-29 01:00:00 17.4 2 Sur 5 Sudeste 0 -- -- 37
2019-07-29 00:00:00 18.7 0 Calma 0 Calma 0 -- -- 34
2019-07-28 23:00:00 20.8 0 Calma 3 Sudeste 0 -- -- 30
2019-07-28 22:00:00 23.3 0 Calma 12 Oeste 0 -- -- 27
2019-07-28 21:00:00 26.8 4 Oeste 19 Noroeste 0 -- -- 25
2019-07-28 20:00:00 28.8 6 Oeste 23 Oeste 0 -- -- 23
2019-07-28 19:00:00 29.3 13 Oeste 25 Oeste 0 -- -- 22
2019-07-28 18:00:00 29.9 8 Oeste 27 Noroeste 0 -- -- 24
2019-07-28 17:00:00 29.9 13 Oeste 28 Noroeste 0 -- -- 25
2019-07-28 16:00:00 28.9 12 Oeste 24 Noroeste 0 -- -- 25
2019-07-28 15:00:00 27.9 9 Oeste 31 Noroeste 0 -- -- 27
2019-07-28 14:00:00 26.9 11 Noroeste 30 Noroeste 0 -- -- 30
2019-07-28 13:00:00 24.5 7 Norte 24 Nordeste 0 -- -- 34
2019-07-28 12:00:00 22.4 13 Nordeste 23 Nordeste 0 -- -- 37
2019-07-28 11:00:00 21 11 Nordeste 22 Nordeste 0 -- -- 42
2019-07-28 10:00:00 18.8 14 Nordeste 22 Nordeste 0 -- -- 47
2019-07-28 09:00:00 17.4 10 Nordeste 24 Norte 0 -- -- 53
2019-07-28 08:00:00 15.6 9 Norte 16 Nordeste 0 -- -- 58
2019-07-28 07:00:00 12.3 9 Nordeste 20 Norte 0 -- -- 70
2019-07-28 06:00:00 12.1 4 Nordeste 13 Norte 0 -- -- 72
2019-07-28 05:00:00 13.1 5 Nordeste 14 Nordeste 0 -- -- 70
2019-07-28 04:00:00 14.1 6 Nordeste 11 Norte 0 -- -- 68
2019-07-28 03:00:00 15.4 6 Nordeste 12 Norte 0 -- -- 65
2019-07-28 02:00:00 16.5 4 Nordeste 18 Norte 0 -- -- 59
2019-07-28 01:00:00 17.9 8 Norte 21 Norte 0 -- -- 51
2019-07-28 00:00:00 19.2 8 Noroeste 19 Noroeste 0 -- -- 44
2019-07-27 23:00:00 20.2 8 Noroeste 22 Noroeste 0 -- -- 39
2019-07-26 12:00:00 -- -- -- -- -- -- -- -- --
2019-07-26 11:00:00 -- -- -- -- -- -- -- -- --
2019-07-26 10:00:00 24.4 10 Oeste 22 Oeste 0 -- -- 49
2019-07-26 09:00:00 22.4 8 Oeste 25 Sudoeste 0 -- -- 56
2019-07-26 08:00:00 21.6 8 Oeste 19 Oeste 0 -- -- 56
2019-07-26 07:00:00 21.3 4 Sur 10 Sudoeste 0 -- -- 47
2019-07-26 06:00:00 21.6 4 Sur 11 Sur 0 -- -- 46
2019-07-26 05:00:00 22.4 4 Sudoeste 14 Sur 0 -- -- 43
2019-07-26 04:00:00 22.9 9 Sudeste 18 Sudeste 0 -- -- 42
2019-07-26 03:00:00 23.7 10 Sudeste 21 Sudeste 0 -- -- 37
2019-07-26 02:00:00 24.5 11 Sudeste 23 Este 0 -- -- 34
2019-07-26 01:00:00 24.4 11 Este 19 Este 0 -- -- 34
2019-07-26 00:00:00 27.4 4 Sur 17 Oeste 0 -- -- 29
2019-07-25 23:00:00 29 9 Oeste 23 Sur 0 -- -- 28
2019-07-25 22:00:00 30.2 10 Oeste 29 Oeste 0 -- -- 26
2019-07-25 21:00:00 32.2 10 Sudoeste 28 Oeste 0 -- -- 21
2019-07-25 20:00:00 34.6 11 Sudoeste 32 Sudoeste 0 -- -- 21
2019-07-25 19:00:00 35 12 Sur 32 Oeste 0 -- -- 20
2019-07-25 18:00:00 35.7 10 Sur 30 Sudoeste 0 -- -- 19
2019-07-25 17:00:00 35.8 11 Sudoeste 34 Sur 0 -- -- 21
2019-07-25 16:00:00 35.7 17 Sudoeste 37 Oeste 0 -- -- 21
2019-07-25 15:00:00 35.4 12 Sur 26 Sudoeste 0 -- -- 22
2019-07-25 14:00:00 34.6 12 Sudoeste 24 Sudoeste 0 -- -- 23
2019-07-25 13:00:00 33.7 9 Sudoeste 23 Sur 0 -- -- 24
2019-07-25 12:00:00 32.2 10 Sur 21 Sudeste 0 -- -- 28
2019-07-25 11:00:00 30.5 11 Sur 23 Sur 0 -- -- 30
2019-07-25 10:00:00 28.1 13 Sudeste 22 Sudeste 0 -- -- 32
2019-07-25 09:00:00 26.3 7 Sudeste 16 Sur 0 -- -- 34
2019-07-25 08:00:00 23.6 6 Sudoeste 18 Sur 0 -- -- 38
2019-07-25 07:00:00 21.2 8 Sur 27 Sudeste 0 -- -- 42
2019-07-25 06:00:00 21.9 15 Sudeste 32 Sudeste 0 -- -- 40
2019-07-25 05:00:00 22 17 Sudeste 33 Sudeste 0 -- -- 40
2019-07-25 04:00:00 22.7 16 Sudeste 36 Sudeste 0 -- -- 38
2019-07-25 03:00:00 23.6 16 Sudeste 32 Sudeste 0 -- -- 37
2019-07-25 02:00:00 24.2 16 Sudeste 32 Este 0 -- -- 37
2019-07-25 01:00:00 25.3 15 Sudeste 36 Sudeste 0 -- -- 37
2019-07-25 00:00:00 26.7 17 Sudeste 35 Sudeste 0 -- -- 32
2019-07-24 23:00:00 28.8 19 Sudeste 36 Sudeste 0 -- -- 26
2019-07-24 22:00:00 30.2 18 Sudeste 33 Sudeste 0 -- -- 23
2019-07-24 21:00:00 32.4 17 Sudeste 38 Sudeste 0 -- -- 21
2019-07-24 20:00:00 34.5 16 Sudeste 30 Sur 0 -- -- 19
2019-07-24 19:00:00 35.6 15 Sudeste 32 Sur 0 -- -- 18
2019-07-24 18:00:00 36.2 12 Sur 36 Sur 0 -- -- 18
2019-07-24 17:00:00 36.5 15 Sudeste 32 Sudeste 0 -- -- 18
2019-07-24 16:00:00 36 18 Sur 38 Sudeste 0 -- -- 18
2019-07-24 15:00:00 35.7 14 Sur 42 Sudeste 0 -- -- 18
2019-07-24 14:00:00 34.7 18 Sur 33 Sudeste 0 -- -- 20
2019-07-24 13:00:00 33.1 20 Sudeste 34 Sur 0 -- -- 21
2019-07-24 12:00:00 32.2 17 Sudeste 30 Sur 0 -- -- 22
2019-07-24 11:00:00 30.5 16 Sudeste 32 Sudeste 0 -- -- 24
2019-07-24 10:00:00 28.2 18 Sudeste 33 Sudeste 0 -- -- 28
2019-07-24 09:00:00 25.5 17 Sudeste 33 Sudeste 0 -- -- 34
2019-07-24 08:00:00 23.4 16 Sudeste 29 Sudeste 0 -- -- 38
2019-07-24 07:00:00 21.7 6 Sudeste 23 Sudeste 0 -- -- 43
2019-07-24 06:00:00 22.1 9 Sudeste 20 Sudeste 0 -- -- 43
2019-07-24 05:00:00 22.8 5 Norte 20 Este 0 -- -- 40
2019-07-24 04:00:00 22.4 13 Este 25 Este 0 -- -- 44
2019-07-24 03:00:00 22.9 15 Este 22 Este 0 -- -- 41
2019-07-24 02:00:00 24.4 6 Oeste 23 Noroeste 0 -- -- 38
2019-07-24 01:00:00 24.6 16 Noroeste 31 Noroeste 0 -- -- 40
2019-07-24 00:00:00 27 7 Oeste 29 Noroeste 0 -- -- 31
2019-07-23 23:00:00 29.7 19 Sudeste 43 Sur 0 -- -- 23
2019-07-23 22:00:00 28.6 26 Sur 50 Sudoeste 0 -- -- 27
2019-07-23 21:00:00 28.3 27 Sudoeste 56 Sudoeste 0 -- -- 31
2019-07-23 20:00:00 30.3 27 Sur 61 Sur 0 -- -- 24
2019-07-23 19:00:00 35.2 28 Sudeste 48 Sudeste 0 -- -- 18
2019-07-23 18:00:00 36 24 Sudeste 49 Sur 0 -- -- 17
2019-07-23 17:00:00 36.2 27 Sur 47 Sur 0 -- -- 17
2019-07-23 16:00:00 35.4 21 Sudeste 44 Sudeste 0 -- -- 20
2019-07-23 15:00:00 35.6 21 Sur 40 Sur 0 -- -- 20
2019-07-23 14:00:00 34.4 19 Sudeste 38 Sudeste 0 -- -- 22
2019-07-23 13:00:00 32.7 21 Sudeste 45 Sudeste 0 -- -- 23
2019-07-23 12:00:00 30.9 24 Sudeste 42 Sudeste 0 -- -- 24
2019-07-23 11:00:00 29.8 20 Sudeste 32 Sudeste 0 -- -- 23
2019-07-23 10:00:00 27.9 13 Sudeste 27 Este 0 -- -- 27
2019-07-23 09:00:00 27.2 12 Sudeste 22 Sudeste 0 -- -- 26
2019-07-23 08:00:00 23.7 2 Nordeste 10 Oeste 0 -- -- 31
2019-07-23 07:00:00 20.8 0 Calma 30 Este 0 -- -- 35
2019-07-23 06:00:00 21.8 15 Sudeste 39 Sudeste 0 -- -- 33
2019-07-23 05:00:00 22.6 17 Sudeste 39 Sudeste 0 -- -- 31
2019-07-23 04:00:00 23.1 21 Sudeste 43 Este 0 -- -- 30
2019-07-23 03:00:00 23.6 22 Sudeste 40 Sudeste 0 -- -- 32
2019-07-23 02:00:00 24.2 22 Sudeste 45 Sudeste 0 -- -- 34
2019-07-23 01:00:00 24.8 22 Sudeste 39 Sudeste 0 -- -- 37
2019-07-23 00:00:00 25.6 21 Sudeste 42 Sudeste 0 -- -- 38
2019-07-22 23:00:00 27 19 Sudeste 40 Sudeste 0 -- -- 36
2019-07-22 22:00:00 28.7 20 Sudeste 45 Sur 0 -- -- 34
2019-07-22 21:00:00 31.3 22 Sudeste 45 Sudeste 0 -- -- 28
2019-07-22 20:00:00 33.6 25 Sudeste 50 Sudeste 0 -- -- 15
2019-07-22 19:00:00 34.6 25 Sudeste 46 Sudeste 0 -- -- 18
2019-07-22 18:00:00 35.2 26 Sudeste 50 Sudeste 0 -- -- 21
2019-07-22 17:00:00 35.6 21 Sudeste 38 Sudeste 0 -- -- 20
2019-07-22 16:00:00 34.6 20 Sudeste 39 Sudeste 0 -- -- 23
2019-07-22 15:00:00 34.1 20 Sudeste 38 Sur 0 -- -- 21
2019-07-22 14:00:00 33.3 26 Sudeste 42 Sudeste 0 -- -- 19
2019-07-22 13:00:00 32.3 19 Sudeste 39 Sudeste 0 -- -- 21
2019-07-22 12:00:00 30.3 26 Sudeste 42 Sudeste 0 -- -- 23
2019-07-22 11:00:00 28.4 24 Sudeste 45 Sudeste 0 -- -- 26
2019-07-22 10:00:00 26.8 22 Sudeste 41 Sudeste 0 -- -- 27
2019-07-22 09:00:00 24.6 14 Sudeste 30 Sudeste 0 -- -- 29
2019-07-22 08:00:00 21.5 9 Sudeste 19 Sudeste 0 -- -- 36
2019-07-22 07:00:00 19.9 5 Nordeste 15 Sudeste 0 -- -- 39
2019-07-22 06:00:00 20.9 10 Sudeste 28 Este 0 -- -- 38
2019-07-22 05:00:00 21.5 7 Sur 17 Sudeste 0 -- -- 37
2019-07-22 04:00:00 21.8 11 Sudeste 36 Sudeste 0 -- -- 37
2019-07-22 03:00:00 21.9 18 Sudeste 35 Sudeste 0 -- -- 37
2019-07-22 02:00:00 23 19 Sudeste 37 Sudeste 0 -- -- 36
2019-07-22 01:00:00 24 18 Sudeste 39 Sudeste 0 -- -- 36
2019-07-22 00:00:00 25.2 23 Sudeste 39 Sudeste 0 -- -- 36